sensor_id;sensor_type;location;lat;lon;timestamp;P1;durP1;ratioP1;P2;durP2;ratioP2
2177;SDS011;1095;50.992;6.798;2024-01-15T00:01:20;53.85;;;23.15;;
2177;SDS011;1095;50.992;6.798;2024-01-15T00:03:47;54.58;;;22.08;;
2177;SDS011;1095;50.992;6.798;2024-01-15T00:06:13;50.40;;;22.48;;
2177;SDS011;1095;50.992;6.798;2024-01-15T00:08:40;51.05;;;22.20;;
2177;SDS011;1095;50.992;6.798;2024-01-15T00:11:06;50.55;;;21.77;;
2177;SDS011;1095;50.992;6.798;2024-01-15T00:13:34;47.95;;;23.40;;
2177;SDS011;1095;50.992;6.798;2024-01-15T00:16:00;57.50;;;22.65;;
2177;SDS011;1095;50.992;6.798;2024-01-15T00:18:27;55.72;;;23.02;;
2177;SDS011;1095;50.992;6.798;2024-01-15T00:20:53;52.75;;;22.08;;
2177;SDS011;1095;50.992;6.798;2024-01-15T00:23:19;53.67;;;23.08;;
2177;SDS011;1095;50.992;6.798;2024-01-15T00:25:46;52.38;;;22.65;;
2177;SDS011;1095;50.992;6.798;2024-01-15T00:28:12;55.95;;;23.13;;
2177;SDS011;1095;50.992;6.798;2024-01-15T00:30:40;55.63;;;22.52;;
2177;SDS011;1095;50.992;6.798;2024-01-15T00:33:06;51.75;;;23.80;;
2177;SDS011;1095;50.992;6.798;2024-01-15T00:35:33;54.83;;;23.55;;
2177;SDS011;1095;50.992;6.798;2024-01-15T00:38:00;61.65;;;24.55;;
2177;SDS011;1095;50.992;6.798;2024-01-15T00:40:26;52.72;;;22.30;;
2177;SDS011;1095;50.992;6.798;2024-01-15T00:42:52;61.47;;;24.25;;
2177;SDS011;1095;50.992;6.798;2024-01-15T00:45:19;64.00;;;24.38;;
2177;SDS011;1095;50.992;6.798;2024-01-15T00:47:47;61.35;;;25.45;;
2177;SDS011;1095;50.992;6.798;2024-01-15T00:50:13;58.67;;;23.80;;
2177;SDS011;1095;50.992;6.798;2024-01-15T00:52:40;60.38;;;24.15;;
2177;SDS011;1095;50.992;6.798;2024-01-15T00:55:06;71.18;;;25.60;;
2177;SDS011;1095;50.992;6.798;2024-01-15T00:57:33;63.53;;;24.92;;
2177;SDS011;1095;50.992;6.798;2024-01-15T00:59:59;65.22;;;23.90;;
2177;SDS011;1095;50.992;6.798;2024-01-15T01:02:26;70.18;;;24.40;;
2177;SDS011;1095;50.992;6.798;2024-01-15T01:04:53;57.00;;;25.55;;
2177;SDS011;1095;50.992;6.798;2024-01-15T01:07:20;64.47;;;23.92;;
2177;SDS011;1095;50.992;6.798;2024-01-15T01:09:46;57.75;;;24.02;;
2177;SDS011;1095;50.992;6.798;2024-01-15T01:12:13;65.32;;;24.95;;
2177;SDS011;1095;50.992;6.798;2024-01-15T01:14:39;60.17;;;25.80;;
2177;SDS011;1095;50.992;6.798;2024-01-15T01:17:06;70.50;;;27.25;;
2177;SDS011;1095;50.992;6.798;2024-01-15T01:19:32;64.25;;;26.92;;
2177;SDS011;1095;50.992;6.798;2024-01-15T01:22:00;67.00;;;27.42;;
2177;SDS011;1095;50.992;6.798;2024-01-15T01:24:26;61.92;;;26.05;;
2177;SDS011;1095;50.992;6.798;2024-01-15T01:26:52;62.55;;;26.98;;
2177;SDS011;1095;50.992;6.798;2024-01-15T01:29:19;63.03;;;25.92;;
2177;SDS011;1095;50.992;6.798;2024-01-15T01:31:48;66.25;;;25.70;;
2177;SDS011;1095;50.992;6.798;2024-01-15T01:34:14;59.83;;;25.25;;
2177;SDS011;1095;50.992;6.798;2024-01-15T01:36:41;68.45;;;26.77;;
2177;SDS011;1095;50.992;6.798;2024-01-15T01:39:09;60.67;;;25.77;;
2177;SDS011;1095;50.992;6.798;2024-01-15T01:41:35;63.28;;;25.95;;
2177;SDS011;1095;50.992;6.798;2024-01-15T01:44:02;63.10;;;26.60;;
2177;SDS011;1095;50.992;6.798;2024-01-15T01:46:28;73.22;;;26.90;;
2177;SDS011;1095;50.992;6.798;2024-01-15T01:48:55;73.20;;;26.00;;
2177;SDS011;1095;50.992;6.798;2024-01-15T01:51:21;64.38;;;25.55;;
2177;SDS011;1095;50.992;6.798;2024-01-15T01:53:49;64.82;;;25.42;;
2177;SDS011;1095;50.992;6.798;2024-01-15T01:56:17;66.55;;;25.17;;
2177;SDS011;1095;50.992;6.798;2024-01-15T01:58:44;62.10;;;25.67;;
2177;SDS011;1095;50.992;6.798;2024-01-15T02:01:10;56.63;;;24.92;;
2177;SDS011;1095;50.992;6.798;2024-01-15T02:03:38;59.30;;;25.50;;
2177;SDS011;1095;50.992;6.798;2024-01-15T02:06:04;61.92;;;24.35;;
2177;SDS011;1095;50.992;6.798;2024-01-15T02:08:30;60.65;;;25.45;;
2177;SDS011;1095;50.992;6.798;2024-01-15T02:10:57;53.97;;;23.92;;
2177;SDS011;1095;50.992;6.798;2024-01-15T02:13:25;50.78;;;23.15;;
2177;SDS011;1095;50.992;6.798;2024-01-15T02:15:51;51.60;;;22.77;;
2177;SDS011;1095;50.992;6.798;2024-01-15T02:18:18;57.83;;;24.40;;
2177;SDS011;1095;50.992;6.798;2024-01-15T02:20:45;51.42;;;24.25;;
2177;SDS011;1095;50.992;6.798;2024-01-15T02:23:13;54.25;;;23.88;;
2177;SDS011;1095;50.992;6.798;2024-01-15T02:25:40;53.40;;;24.42;;
2177;SDS011;1095;50.992;6.798;2024-01-15T02:28:07;54.58;;;24.40;;
2177;SDS011;1095;50.992;6.798;2024-01-15T02:30:35;58.70;;;23.73;;
2177;SDS011;1095;50.992;6.798;2024-01-15T02:33:04;58.50;;;23.35;;
2177;SDS011;1095;50.992;6.798;2024-01-15T02:35:30;54.08;;;22.73;;
2177;SDS011;1095;50.992;6.798;2024-01-15T02:37:56;52.40;;;23.10;;
2177;SDS011;1095;50.992;6.798;2024-01-15T02:40:24;56.60;;;23.35;;
2177;SDS011;1095;50.992;6.798;2024-01-15T02:42:50;52.70;;;23.30;;
2177;SDS011;1095;50.992;6.798;2024-01-15T02:45:17;54.72;;;25.23;;
2177;SDS011;1095;50.992;6.798;2024-01-15T02:47:43;51.97;;;22.73;;
2177;SDS011;1095;50.992;6.798;2024-01-15T02:50:10;46.78;;;24.23;;
2177;SDS011;1095;50.992;6.798;2024-01-15T02:52:36;49.30;;;24.23;;
2177;SDS011;1095;50.992;6.798;2024-01-15T02:55:03;49.20;;;23.05;;
2177;SDS011;1095;50.992;6.798;2024-01-15T02:57:31;52.88;;;22.15;;
2177;SDS011;1095;50.992;6.798;2024-01-15T02:59:57;45.63;;;22.42;;
2177;SDS011;1095;50.992;6.798;2024-01-15T03:02:23;46.88;;;21.63;;
2177;SDS011;1095;50.992;6.798;2024-01-15T03:04:50;44.63;;;20.88;;
2177;SDS011;1095;50.992;6.798;2024-01-15T03:07:16;42.28;;;20.05;;
2177;SDS011;1095;50.992;6.798;2024-01-15T03:09:43;36.22;;;19.30;;
2177;SDS011;1095;50.992;6.798;2024-01-15T03:12:09;47.60;;;20.70;;
2177;SDS011;1095;50.992;6.798;2024-01-15T03:14:37;40.08;;;19.42;;
2177;SDS011;1095;50.992;6.798;2024-01-15T03:17:04;45.13;;;20.02;;
2177;SDS011;1095;50.992;6.798;2024-01-15T03:19:30;42.95;;;19.73;;
2177;SDS011;1095;50.992;6.798;2024-01-15T03:21:56;42.90;;;20.80;;
2177;SDS011;1095;50.992;6.798;2024-01-15T03:24:23;43.67;;;20.38;;
2177;SDS011;1095;50.992;6.798;2024-01-15T03:26:49;42.67;;;21.63;;
2177;SDS011;1095;50.992;6.798;2024-01-15T03:29:15;43.38;;;21.58;;
2177;SDS011;1095;50.992;6.798;2024-01-15T03:31:43;42.88;;;21.48;;
2177;SDS011;1095;50.992;6.798;2024-01-15T03:34:10;48.38;;;22.45;;
2177;SDS011;1095;50.992;6.798;2024-01-15T03:36:36;48.35;;;22.83;;
2177;SDS011;1095;50.992;6.798;2024-01-15T03:39:02;46.65;;;21.83;;
2177;SDS011;1095;50.992;6.798;2024-01-15T03:41:29;49.40;;;23.40;;
2177;SDS011;1095;50.992;6.798;2024-01-15T03:43:55;47.00;;;22.65;;
2177;SDS011;1095;50.992;6.798;2024-01-15T03:46:22;43.08;;;21.27;;
2177;SDS011;1095;50.992;6.798;2024-01-15T03:48:50;47.45;;;22.65;;
2177;SDS011;1095;50.992;6.798;2024-01-15T03:51:17;49.38;;;22.85;;
2177;SDS011;1095;50.992;6.798;2024-01-15T03:53:43;47.50;;;23.58;;
2177;SDS011;1095;50.992;6.798;2024-01-15T03:56:10;48.55;;;22.42;;
2177;SDS011;1095;50.992;6.798;2024-01-15T03:58:36;46.42;;;21.40;;
2177;SDS011;1095;50.992;6.798;2024-01-15T04:01:03;43.67;;;21.60;;
2177;SDS011;1095;50.992;6.798;2024-01-15T04:03:29;47.65;;;22.23;;
2177;SDS011;1095;50.992;6.798;2024-01-15T04:05:57;45.83;;;21.48;;
2177;SDS011;1095;50.992;6.798;2024-01-15T04:08:23;42.50;;;22.08;;
2177;SDS011;1095;50.992;6.798;2024-01-15T04:10:50;45.88;;;20.60;;
2177;SDS011;1095;50.992;6.798;2024-01-15T04:13:16;43.95;;;19.45;;
2177;SDS011;1095;50.992;6.798;2024-01-15T04:15:42;41.45;;;18.95;;
2177;SDS011;1095;50.992;6.798;2024-01-15T04:18:09;44.70;;;20.52;;
2177;SDS011;1095;50.992;6.798;2024-01-15T04:20:35;43.30;;;19.77;;
2177;SDS011;1095;50.992;6.798;2024-01-15T04:23:03;42.80;;;19.60;;
2177;SDS011;1095;50.992;6.798;2024-01-15T04:25:29;41.60;;;19.48;;
2177;SDS011;1095;50.992;6.798;2024-01-15T04:27:56;45.38;;;21.50;;
2177;SDS011;1095;50.992;6.798;2024-01-15T04:30:22;37.35;;;18.33;;
2177;SDS011;1095;50.992;6.798;2024-01-15T04:32:49;40.20;;;18.30;;
2177;SDS011;1095;50.992;6.798;2024-01-15T04:35:15;42.63;;;19.05;;
2177;SDS011;1095;50.992;6.798;2024-01-15T04:37:41;43.33;;;20.30;;
2177;SDS011;1095;50.992;6.798;2024-01-15T04:40:10;42.05;;;18.08;;
2177;SDS011;1095;50.992;6.798;2024-01-15T04:42:36;33.22;;;16.13;;
2177;SDS011;1095;50.992;6.798;2024-01-15T04:45:03;30.98;;;17.50;;
2177;SDS011;1095;50.992;6.798;2024-01-15T04:47:29;32.05;;;16.98;;
2177;SDS011;1095;50.992;6.798;2024-01-15T04:49:56;27.70;;;15.57;;
2177;SDS011;1095;50.992;6.798;2024-01-15T04:52:22;36.25;;;16.55;;
2177;SDS011;1095;50.992;6.798;2024-01-15T04:54:49;33.58;;;16.30;;
2177;SDS011;1095;50.992;6.798;2024-01-15T04:57:16;33.65;;;16.58;;
2177;SDS011;1095;50.992;6.798;2024-01-15T04:59:43;33.08;;;17.27;;
2177;SDS011;1095;50.992;6.798;2024-01-15T05:02:09;34.78;;;17.02;;
2177;SDS011;1095;50.992;6.798;2024-01-15T05:04:35;37.97;;;21.00;;
2177;SDS011;1095;50.992;6.798;2024-01-15T05:07:02;32.30;;;17.73;;
2177;SDS011;1095;50.992;6.798;2024-01-15T05:09:28;31.88;;;15.93;;
2177;SDS011;1095;50.992;6.798;2024-01-15T05:11:55;31.67;;;15.82;;
2177;SDS011;1095;50.992;6.798;2024-01-15T05:14:22;31.92;;;16.60;;
2177;SDS011;1095;50.992;6.798;2024-01-15T05:16:49;36.30;;;16.52;;
2177;SDS011;1095;50.992;6.798;2024-01-15T05:19:16;34.13;;;17.40;;
2177;SDS011;1095;50.992;6.798;2024-01-15T05:21:42;32.63;;;16.50;;
2177;SDS011;1095;50.992;6.798;2024-01-15T05:24:08;30.98;;;15.60;;
2177;SDS011;1095;50.992;6.798;2024-01-15T05:26:35;32.58;;;15.43;;
2177;SDS011;1095;50.992;6.798;2024-01-15T05:29:01;30.38;;;14.60;;
2177;SDS011;1095;50.992;6.798;2024-01-15T05:31:29;28.30;;;14.80;;
2177;SDS011;1095;50.992;6.798;2024-01-15T05:33:55;29.80;;;13.75;;
2177;SDS011;1095;50.992;6.798;2024-01-15T05:36:22;26.10;;;13.88;;
2177;SDS011;1095;50.992;6.798;2024-01-15T05:38:48;30.75;;;14.80;;
2177;SDS011;1095;50.992;6.798;2024-01-15T05:41:15;30.17;;;13.95;;
2177;SDS011;1095;50.992;6.798;2024-01-15T05:43:41;30.15;;;15.70;;
2177;SDS011;1095;50.992;6.798;2024-01-15T05:46:08;34.15;;;13.93;;
2177;SDS011;1095;50.992;6.798;2024-01-15T05:48:35;27.88;;;14.32;;
2177;SDS011;1095;50.992;6.798;2024-01-15T05:51:02;26.70;;;13.30;;
2177;SDS011;1095;50.992;6.798;2024-01-15T05:53:28;28.15;;;14.45;;
2177;SDS011;1095;50.992;6.798;2024-01-15T05:55:55;26.77;;;13.88;;
2177;SDS011;1095;50.992;6.798;2024-01-15T05:58:22;30.55;;;14.23;;
2177;SDS011;1095;50.992;6.798;2024-01-15T06:00:48;28.73;;;14.30;;
2177;SDS011;1095;50.992;6.798;2024-01-15T06:03:15;30.10;;;14.43;;
2177;SDS011;1095;50.992;6.798;2024-01-15T06:05:43;25.95;;;13.32;;
2177;SDS011;1095;50.992;6.798;2024-01-15T06:08:09;28.98;;;15.82;;
2177;SDS011;1095;50.992;6.798;2024-01-15T06:10:35;28.17;;;14.95;;
2177;SDS011;1095;50.992;6.798;2024-01-15T06:13:02;38.55;;;15.15;;
2177;SDS011;1095;50.992;6.798;2024-01-15T06:15:28;28.80;;;14.27;;
2177;SDS011;1095;50.992;6.798;2024-01-15T06:17:54;32.65;;;16.15;;
2177;SDS011;1095;50.992;6.798;2024-01-15T06:20:21;32.53;;;17.55;;
2177;SDS011;1095;50.992;6.798;2024-01-15T06:22:49;33.35;;;17.23;;
2177;SDS011;1095;50.992;6.798;2024-01-15T06:25:15;30.25;;;16.27;;
2177;SDS011;1095;50.992;6.798;2024-01-15T06:27:41;28.75;;;15.90;;
2177;SDS011;1095;50.992;6.798;2024-01-15T06:30:08;29.55;;;16.65;;
2177;SDS011;1095;50.992;6.798;2024-01-15T06:32:35;34.10;;;17.25;;
2177;SDS011;1095;50.992;6.798;2024-01-15T06:35:01;31.17;;;16.73;;
2177;SDS011;1095;50.992;6.798;2024-01-15T06:37:28;41.20;;;17.92;;
2177;SDS011;1095;50.992;6.798;2024-01-15T06:39:55;34.60;;;17.80;;
2177;SDS011;1095;50.992;6.798;2024-01-15T06:42:22;31.45;;;17.27;;
2177;SDS011;1095;50.992;6.798;2024-01-15T06:44:48;31.27;;;17.10;;
2177;SDS011;1095;50.992;6.798;2024-01-15T06:47:15;33.83;;;16.25;;
2177;SDS011;1095;50.992;6.798;2024-01-15T06:49:42;27.88;;;15.90;;
2177;SDS011;1095;50.992;6.798;2024-01-15T06:52:09;36.30;;;17.48;;
2177;SDS011;1095;50.992;6.798;2024-01-15T06:54:36;35.45;;;16.70;;
2177;SDS011;1095;50.992;6.798;2024-01-15T06:57:04;28.80;;;15.45;;
2177;SDS011;1095;50.992;6.798;2024-01-15T06:59:31;28.95;;;16.73;;
2177;SDS011;1095;50.992;6.798;2024-01-15T07:01:58;30.02;;;15.85;;
2177;SDS011;1095;50.992;6.798;2024-01-15T07:04:24;32.65;;;16.58;;
2177;SDS011;1095;50.992;6.798;2024-01-15T07:06:51;29.85;;;16.10;;
2177;SDS011;1095;50.992;6.798;2024-01-15T07:09:17;33.45;;;17.95;;
2177;SDS011;1095;50.992;6.798;2024-01-15T07:11:44;34.85;;;19.83;;
2177;SDS011;1095;50.992;6.798;2024-01-15T07:14:12;40.35;;;20.92;;
2177;SDS011;1095;50.992;6.798;2024-01-15T07:16:39;33.20;;;19.77;;
2177;SDS011;1095;50.992;6.798;2024-01-15T07:19:05;34.70;;;19.75;;
2177;SDS011;1095;50.992;6.798;2024-01-15T07:21:32;38.47;;;20.52;;
2177;SDS011;1095;50.992;6.798;2024-01-15T07:23:58;35.70;;;19.67;;
2177;SDS011;1095;50.992;6.798;2024-01-15T07:26:25;33.83;;;18.48;;
2177;SDS011;1095;50.992;6.798;2024-01-15T07:28:51;36.83;;;19.40;;
2177;SDS011;1095;50.992;6.798;2024-01-15T07:31:19;35.38;;;19.13;;
2177;SDS011;1095;50.992;6.798;2024-01-15T07:33:46;37.35;;;20.92;;
2177;SDS011;1095;50.992;6.798;2024-01-15T07:36:12;38.10;;;21.15;;
2177;SDS011;1095;50.992;6.798;2024-01-15T07:38:39;34.85;;;19.75;;
2177;SDS011;1095;50.992;6.798;2024-01-15T07:41:05;40.30;;;19.95;;
2177;SDS011;1095;50.992;6.798;2024-01-15T07:43:32;36.05;;;20.95;;
2177;SDS011;1095;50.992;6.798;2024-01-15T07:45:58;38.65;;;21.33;;
2177;SDS011;1095;50.992;6.798;2024-01-15T07:48:27;46.08;;;22.33;;
2177;SDS011;1095;50.992;6.798;2024-01-15T07:50:53;44.15;;;21.77;;
2177;SDS011;1095;50.992;6.798;2024-01-15T07:53:19;37.22;;;21.50;;
2177;SDS011;1095;50.992;6.798;2024-01-15T07:55:46;41.00;;;21.88;;
2177;SDS011;1095;50.992;6.798;2024-01-15T07:58:12;46.53;;;25.55;;
2177;SDS011;1095;50.992;6.798;2024-01-15T08:00:39;42.15;;;21.88;;
2177;SDS011;1095;50.992;6.798;2024-01-15T08:03:05;42.63;;;22.60;;
2177;SDS011;1095;50.992;6.798;2024-01-15T08:05:33;42.67;;;21.23;;
2177;SDS011;1095;50.992;6.798;2024-01-15T08:07:59;43.88;;;22.63;;
2177;SDS011;1095;50.992;6.798;2024-01-15T08:10:26;44.33;;;22.88;;
2177;SDS011;1095;50.992;6.798;2024-01-15T08:12:52;40.97;;;23.10;;
2177;SDS011;1095;50.992;6.798;2024-01-15T08:15:19;46.15;;;24.05;;
2177;SDS011;1095;50.992;6.798;2024-01-15T08:17:45;45.10;;;23.40;;
2177;SDS011;1095;50.992;6.798;2024-01-15T08:20:11;42.42;;;22.40;;
2177;SDS011;1095;50.992;6.798;2024-01-15T08:22:39;44.55;;;22.20;;
2177;SDS011;1095;50.992;6.798;2024-01-15T08:25:06;44.60;;;23.08;;
2177;SDS011;1095;50.992;6.798;2024-01-15T08:27:33;39.58;;;19.58;;
2177;SDS011;1095;50.992;6.798;2024-01-15T08:29:59;38.58;;;21.23;;
2177;SDS011;1095;50.992;6.798;2024-01-15T08:32:25;34.88;;;19.98;;
2177;SDS011;1095;50.992;6.798;2024-01-15T08:34:52;40.30;;;21.45;;
2177;SDS011;1095;50.992;6.798;2024-01-15T08:37:18;40.95;;;21.33;;
2177;SDS011;1095;50.992;6.798;2024-01-15T08:39:46;41.47;;;21.42;;
2177;SDS011;1095;50.992;6.798;2024-01-15T08:42:12;38.22;;;19.95;;
2177;SDS011;1095;50.992;6.798;2024-01-15T08:44:39;33.83;;;19.58;;
2177;SDS011;1095;50.992;6.798;2024-01-15T08:47:08;46.58;;;21.77;;
2177;SDS011;1095;50.992;6.798;2024-01-15T08:49:34;38.67;;;20.70;;
2177;SDS011;1095;50.992;6.798;2024-01-15T08:52:01;39.80;;;20.80;;
2177;SDS011;1095;50.992;6.798;2024-01-15T08:54:27;37.80;;;19.98;;
2177;SDS011;1095;50.992;6.798;2024-01-15T08:56:55;38.15;;;20.73;;
2177;SDS011;1095;50.992;6.798;2024-01-15T08:59:22;36.00;;;19.08;;
2177;SDS011;1095;50.992;6.798;2024-01-15T09:01:50;36.75;;;18.55;;
2177;SDS011;1095;50.992;6.798;2024-01-15T09:04:17;33.03;;;18.90;;
2177;SDS011;1095;50.992;6.798;2024-01-15T09:06:44;33.50;;;18.70;;
2177;SDS011;1095;50.992;6.798;2024-01-15T09:09:10;33.38;;;18.63;;
2177;SDS011;1095;50.992;6.798;2024-01-15T09:11:37;28.83;;;17.40;;
2177;SDS011;1095;50.992;6.798;2024-01-15T09:14:05;29.20;;;15.80;;
2177;SDS011;1095;50.992;6.798;2024-01-15T09:16:31;28.23;;;16.02;;
2177;SDS011;1095;50.992;6.798;2024-01-15T09:18:57;28.02;;;16.02;;
2177;SDS011;1095;50.992;6.798;2024-01-15T09:21:24;26.13;;;15.93;;
2177;SDS011;1095;50.992;6.798;2024-01-15T09:23:51;29.83;;;15.95;;
2177;SDS011;1095;50.992;6.798;2024-01-15T09:26:17;26.60;;;15.20;;
2177;SDS011;1095;50.992;6.798;2024-01-15T09:28:44;25.20;;;14.98;;
2177;SDS011;1095;50.992;6.798;2024-01-15T09:31:12;28.88;;;15.15;;
2177;SDS011;1095;50.992;6.798;2024-01-15T09:33:38;25.83;;;14.80;;
2177;SDS011;1095;50.992;6.798;2024-01-15T09:36:05;24.77;;;14.48;;
2177;SDS011;1095;50.992;6.798;2024-01-15T09:38:32;21.63;;;12.57;;
2177;SDS011;1095;50.992;6.798;2024-01-15T09:40:58;23.27;;;11.93;;
2177;SDS011;1095;50.992;6.798;2024-01-15T09:43:25;15.98;;;10.77;;
2177;SDS011;1095;50.992;6.798;2024-01-15T09:45:51;20.90;;;11.48;;
2177;SDS011;1095;50.992;6.798;2024-01-15T09:48:20;21.95;;;11.25;;
2177;SDS011;1095;50.992;6.798;2024-01-15T09:50:47;19.45;;;11.70;;
2177;SDS011;1095;50.992;6.798;2024-01-15T09:53:13;19.77;;;11.85;;
2177;SDS011;1095;50.992;6.798;2024-01-15T09:55:41;18.45;;;12.35;;
2177;SDS011;1095;50.992;6.798;2024-01-15T09:58:07;19.20;;;12.05;;
2177;SDS011;1095;50.992;6.798;2024-01-15T10:00:34;18.90;;;12.15;;
2177;SDS011;1095;50.992;6.798;2024-01-15T10:03:02;22.27;;;12.68;;
2177;SDS011;1095;50.992;6.798;2024-01-15T10:05:30;22.02;;;12.63;;
2177;SDS011;1095;50.992;6.798;2024-01-15T10:07:57;20.02;;;11.40;;
2177;SDS011;1095;50.992;6.798;2024-01-15T10:10:24;16.70;;;10.80;;
2177;SDS011;1095;50.992;6.798;2024-01-15T10:12:51;18.83;;;10.85;;
2177;SDS011;1095;50.992;6.798;2024-01-15T10:15:17;15.95;;;10.25;;
2177;SDS011;1095;50.992;6.798;2024-01-15T10:17:43;17.33;;;10.07;;
2177;SDS011;1095;50.992;6.798;2024-01-15T10:20:10;15.60;;;9.10;;
2177;SDS011;1095;50.992;6.798;2024-01-15T10:22:40;15.90;;;9.05;;
2177;SDS011;1095;50.992;6.798;2024-01-15T10:25:07;13.23;;;8.50;;
2177;SDS011;1095;50.992;6.798;2024-01-15T10:27:35;16.98;;;8.82;;
2177;SDS011;1095;50.992;6.798;2024-01-15T10:30:02;13.43;;;7.63;;
2177;SDS011;1095;50.992;6.798;2024-01-15T10:32:29;12.32;;;8.18;;
2177;SDS011;1095;50.992;6.798;2024-01-15T10:34:55;12.05;;;8.02;;
2177;SDS011;1095;50.992;6.798;2024-01-15T10:37:23;11.05;;;6.95;;
2177;SDS011;1095;50.992;6.798;2024-01-15T10:39:51;11.88;;;7.35;;
2177;SDS011;1095;50.992;6.798;2024-01-15T10:42:18;11.85;;;7.68;;
2177;SDS011;1095;50.992;6.798;2024-01-15T10:44:44;10.43;;;6.95;;
2177;SDS011;1095;50.992;6.798;2024-01-15T10:47:12;9.93;;;6.57;;
2177;SDS011;1095;50.992;6.798;2024-01-15T10:49:39;8.77;;;6.30;;
2177;SDS011;1095;50.992;6.798;2024-01-15T10:52:06;14.93;;;5.78;;
2177;SDS011;1095;50.992;6.798;2024-01-15T10:54:32;11.25;;;6.22;;
2177;SDS011;1095;50.992;6.798;2024-01-15T10:57:01;11.57;;;6.40;;
2177;SDS011;1095;50.992;6.798;2024-01-15T10:59:28;9.00;;;6.45;;
2177;SDS011;1095;50.992;6.798;2024-01-15T11:01:54;9.30;;;6.22;;
2177;SDS011;1095;50.992;6.798;2024-01-15T11:04:21;9.10;;;6.55;;
2177;SDS011;1095;50.992;6.798;2024-01-15T11:06:50;15.82;;;9.57;;
2177;SDS011;1095;50.992;6.798;2024-01-15T11:09:16;12.20;;;8.50;;
2177;SDS011;1095;50.992;6.798;2024-01-15T11:11:43;12.55;;;7.40;;
2177;SDS011;1095;50.992;6.798;2024-01-15T11:14:12;11.68;;;7.07;;
2177;SDS011;1095;50.992;6.798;2024-01-15T11:17:00;9.70;;;7.15;;
2177;SDS011;1095;50.992;6.798;2024-01-15T11:19:34;11.55;;;6.93;;
2177;SDS011;1095;50.992;6.798;2024-01-15T11:22:01;11.45;;;7.57;;
2177;SDS011;1095;50.992;6.798;2024-01-15T11:24:38;12.00;;;8.32;;
2177;SDS011;1095;50.992;6.798;2024-01-15T11:27:05;12.65;;;7.40;;
2177;SDS011;1095;50.992;6.798;2024-01-15T11:29:33;13.18;;;7.70;;
2177;SDS011;1095;50.992;6.798;2024-01-15T11:32:01;12.20;;;8.48;;
2177;SDS011;1095;50.992;6.798;2024-01-15T11:37:14;12.45;;;8.68;;
2177;SDS011;1095;50.992;6.798;2024-01-15T11:39:41;15.50;;;10.27;;
2177;SDS011;1095;50.992;6.798;2024-01-15T11:42:09;15.90;;;10.80;;
2177;SDS011;1095;50.992;6.798;2024-01-15T11:44:38;15.57;;;10.57;;
2177;SDS011;1095;50.992;6.798;2024-01-15T11:47:05;18.90;;;11.95;;
2177;SDS011;1095;50.992;6.798;2024-01-15T11:49:36;17.58;;;11.88;;
2177;SDS011;1095;50.992;6.798;2024-01-15T11:52:11;17.77;;;12.32;;
2177;SDS011;1095;50.992;6.798;2024-01-15T11:54:38;19.70;;;13.20;;
2177;SDS011;1095;50.992;6.798;2024-01-15T11:57:08;18.98;;;12.65;;
2177;SDS011;1095;50.992;6.798;2024-01-15T11:59:35;21.33;;;12.23;;
2177;SDS011;1095;50.992;6.798;2024-01-15T12:02:03;20.67;;;11.80;;
2177;SDS011;1095;50.992;6.798;2024-01-15T12:04:31;21.85;;;13.02;;
2177;SDS011;1095;50.992;6.798;2024-01-15T12:06:57;19.23;;;13.05;;
2177;SDS011;1095;50.992;6.798;2024-01-15T12:09:24;20.23;;;12.27;;
2177;SDS011;1095;50.992;6.798;2024-01-15T12:11:54;21.15;;;12.27;;
2177;SDS011;1095;50.992;6.798;2024-01-15T12:14:24;23.33;;;12.57;;
2177;SDS011;1095;50.992;6.798;2024-01-15T12:16:52;28.27;;;12.85;;
2177;SDS011;1095;50.992;6.798;2024-01-15T12:19:20;17.40;;;11.30;;
2177;SDS011;1095;50.992;6.798;2024-01-15T12:21:48;19.92;;;10.95;;
2177;SDS011;1095;50.992;6.798;2024-01-15T12:24:14;17.65;;;11.00;;
2177;SDS011;1095;50.992;6.798;2024-01-15T12:26:40;17.65;;;10.75;;
2177;SDS011;1095;50.992;6.798;2024-01-15T12:29:07;20.50;;;10.77;;
2177;SDS011;1095;50.992;6.798;2024-01-15T12:31:34;22.63;;;10.65;;
2177;SDS011;1095;50.992;6.798;2024-01-15T12:34:01;17.55;;;10.45;;
2177;SDS011;1095;50.992;6.798;2024-01-15T12:36:31;20.67;;;9.75;;
2177;SDS011;1095;50.992;6.798;2024-01-15T12:38:58;14.70;;;8.82;;
2177;SDS011;1095;50.992;6.798;2024-01-15T12:41:25;19.52;;;9.25;;
2177;SDS011;1095;50.992;6.798;2024-01-15T12:43:51;16.77;;;9.38;;
2177;SDS011;1095;50.992;6.798;2024-01-15T12:46:18;19.90;;;8.93;;
2177;SDS011;1095;50.992;6.798;2024-01-15T12:48:45;16.90;;;10.15;;
2177;SDS011;1095;50.992;6.798;2024-01-15T12:51:11;21.30;;;8.65;;
2177;SDS011;1095;50.992;6.798;2024-01-15T12:53:39;20.05;;;8.98;;
2177;SDS011;1095;50.992;6.798;2024-01-15T12:56:05;10.10;;;7.45;;
2177;SDS011;1095;50.992;6.798;2024-01-15T12:58:32;15.15;;;8.80;;
2177;SDS011;1095;50.992;6.798;2024-01-15T13:00:58;17.95;;;8.32;;
2177;SDS011;1095;50.992;6.798;2024-01-15T13:03:25;12.98;;;8.35;;
2177;SDS011;1095;50.992;6.798;2024-01-15T13:05:51;18.45;;;8.38;;
2177;SDS011;1095;50.992;6.798;2024-01-15T13:08:18;11.88;;;7.57;;
2177;SDS011;1095;50.992;6.798;2024-01-15T13:10:45;17.50;;;9.20;;
2177;SDS011;1095;50.992;6.798;2024-01-15T13:13:12;12.13;;;7.78;;
2177;SDS011;1095;50.992;6.798;2024-01-15T13:15:38;19.08;;;7.78;;
2177;SDS011;1095;50.992;6.798;2024-01-15T13:18:06;12.30;;;7.18;;
2177;SDS011;1095;50.992;6.798;2024-01-15T13:20:32;13.88;;;7.55;;
2177;SDS011;1095;50.992;6.798;2024-01-15T13:22:59;9.95;;;6.55;;
2177;SDS011;1095;50.992;6.798;2024-01-15T13:25:25;11.85;;;6.90;;
2177;SDS011;1095;50.992;6.798;2024-01-15T13:27:53;10.23;;;6.22;;
2177;SDS011;1095;50.992;6.798;2024-01-15T13:30:19;9.25;;;6.65;;
2177;SDS011;1095;50.992;6.798;2024-01-15T13:32:46;11.27;;;6.25;;
2177;SDS011;1095;50.992;6.798;2024-01-15T13:35:13;14.45;;;6.15;;
2177;SDS011;1095;50.992;6.798;2024-01-15T13:37:39;7.35;;;5.57;;
2177;SDS011;1095;50.992;6.798;2024-01-15T13:40:07;9.77;;;5.95;;
2177;SDS011;1095;50.992;6.798;2024-01-15T13:42:34;10.98;;;6.53;;
2177;SDS011;1095;50.992;6.798;2024-01-15T13:45:04;11.73;;;7.70;;
2177;SDS011;1095;50.992;6.798;2024-01-15T13:47:32;12.20;;;7.40;;
2177;SDS011;1095;50.992;6.798;2024-01-15T13:49:59;9.15;;;6.22;;
2177;SDS011;1095;50.992;6.798;2024-01-15T13:52:25;11.35;;;7.85;;
2177;SDS011;1095;50.992;6.798;2024-01-15T13:54:53;7.60;;;5.20;;
2177;SDS011;1095;50.992;6.798;2024-01-15T13:57:19;6.70;;;4.80;;
2177;SDS011;1095;50.992;6.798;2024-01-15T13:59:45;7.07;;;4.78;;
2177;SDS011;1095;50.992;6.798;2024-01-15T14:02:13;6.07;;;4.68;;
2177;SDS011;1095;50.992;6.798;2024-01-15T14:04:40;6.18;;;4.32;;
2177;SDS011;1095;50.992;6.798;2024-01-15T14:07:07;6.30;;;4.90;;
2177;SDS011;1095;50.992;6.798;2024-01-15T14:09:33;7.35;;;4.97;;
2177;SDS011;1095;50.992;6.798;2024-01-15T14:21:03;6.05;;;4.47;;
2177;SDS011;1095;50.992;6.798;2024-01-15T14:23:50;6.38;;;4.50;;
2177;SDS011;1095;50.992;6.798;2024-01-15T14:26:31;7.25;;;4.75;;
2177;SDS011;1095;50.992;6.798;2024-01-15T14:28:57;7.90;;;4.63;;
2177;SDS011;1095;50.992;6.798;2024-01-15T14:31:24;6.60;;;4.43;;
2177;SDS011;1095;50.992;6.798;2024-01-15T14:33:51;6.68;;;4.47;;
2177;SDS011;1095;50.992;6.798;2024-01-15T14:36:19;5.60;;;4.40;;
2177;SDS011;1095;50.992;6.798;2024-01-15T14:38:45;7.68;;;4.85;;
2177;SDS011;1095;50.992;6.798;2024-01-15T14:41:11;6.13;;;4.55;;
2177;SDS011;1095;50.992;6.798;2024-01-15T14:43:38;6.60;;;4.57;;
2177;SDS011;1095;50.992;6.798;2024-01-15T14:46:05;5.80;;;4.53;;
2177;SDS011;1095;50.992;6.798;2024-01-15T14:48:31;5.95;;;4.40;;
2177;SDS011;1095;50.992;6.798;2024-01-15T14:50:57;9.15;;;4.95;;
2177;SDS011;1095;50.992;6.798;2024-01-15T14:53:25;6.68;;;5.15;;
2177;SDS011;1095;50.992;6.798;2024-01-15T14:55:51;8.20;;;5.43;;
2177;SDS011;1095;50.992;6.798;2024-01-15T14:58:19;7.13;;;5.05;;
2177;SDS011;1095;50.992;6.798;2024-01-15T15:00:45;10.70;;;5.70;;
2177;SDS011;1095;50.992;6.798;2024-01-15T15:03:12;8.45;;;5.15;;